Terminal Aerodrome Forecast
Issued by NWS Melbourne, FL

Home | Current Version | Previous Version | Text Only | Print | Product List | Glossary On
Versions: 1 2 3 4 5 6 7 8 9 10 11 12 13 14 15
000
FTUS42 KMLB 281720
TAFVRB
TAF
KVRB 281720Z 2818/2918 07012G18KT P6SM FEW040
     FM290200 08010KT P6SM SCT030
     FM291300 08012G19KT P6SM VCSH SCT030 BKN040=

USA.gov is the U.S. government's official web portal to all federal, state and local government web resources and services.